sensor_id;sensor_type;location;lat;lon;timestamp;P1;durP1;ratioP1;P2;durP2;ratioP2
55784;SDS011;41709;52.536;5.688;2023-04-03T00:01:31;1.42;;;0.80;;
55784;SDS011;41709;52.536;5.688;2023-04-03T00:03:57;2.92;;;1.00;;
55784;SDS011;41709;52.536;5.688;2023-04-03T00:06:23;2.88;;;0.90;;
55784;SDS011;41709;52.536;5.688;2023-04-03T00:08:51;2.88;;;0.90;;
55784;SDS011;41709;52.536;5.688;2023-04-03T00:11:17;1.95;;;0.95;;
55784;SDS011;41709;52.536;5.688;2023-04-03T00:13:43;1.88;;;0.77;;
55784;SDS011;41709;52.536;5.688;2023-04-03T00:16:09;3.40;;;0.90;;
55784;SDS011;41709;52.536;5.688;2023-04-03T00:18:36;1.70;;;0.90;;
55784;SDS011;41709;52.536;5.688;2023-04-03T00:21:02;2.38;;;0.80;;
55784;SDS011;41709;52.536;5.688;2023-04-03T00:23:28;2.13;;;0.77;;
55784;SDS011;41709;52.536;5.688;2023-04-03T00:25:53;2.28;;;0.90;;
55784;SDS011;41709;52.536;5.688;2023-04-03T00:28:19;2.28;;;1.00;;
55784;SDS011;41709;52.536;5.688;2023-04-03T00:30:45;5.18;;;1.45;;
55784;SDS011;41709;52.536;5.688;2023-04-03T00:33:13;4.78;;;1.50;;
55784;SDS011;41709;52.536;5.688;2023-04-03T00:35:40;1.80;;;1.17;;
55784;SDS011;41709;52.536;5.688;2023-04-03T00:38:06;3.78;;;1.23;;
55784;SDS011;41709;52.536;5.688;2023-04-03T00:40:37;7.25;;;0.90;;
55784;SDS011;41709;52.536;5.688;2023-04-03T00:43:17;1.52;;;0.85;;
55784;SDS011;41709;52.536;5.688;2023-04-03T00:45:45;2.13;;;0.87;;
55784;SDS011;41709;52.536;5.688;2023-04-03T00:48:14;1.83;;;1.13;;
55784;SDS011;41709;52.536;5.688;2023-04-03T00:51:14;2.17;;;0.90;;
55784;SDS011;41709;52.536;5.688;2023-04-03T00:53:46;3.58;;;1.10;;
55784;SDS011;41709;52.536;5.688;2023-04-03T00:56:19;1.75;;;0.60;;
55784;SDS011;41709;52.536;5.688;2023-04-03T00:58:49;3.30;;;0.95;;
55784;SDS011;41709;52.536;5.688;2023-04-03T01:01:22;3.95;;;0.93;;
55784;SDS011;41709;52.536;5.688;2023-04-03T01:03:49;3.83;;;1.00;;
55784;SDS011;41709;52.536;5.688;2023-04-03T01:06:16;2.78;;;1.00;;
55784;SDS011;41709;52.536;5.688;2023-04-03T01:08:45;1.67;;;1.10;;
55784;SDS011;41709;52.536;5.688;2023-04-03T01:13:40;3.33;;;1.00;;
55784;SDS011;41709;52.536;5.688;2023-04-03T01:16:06;3.33;;;1.05;;
55784;SDS011;41709;52.536;5.688;2023-04-03T01:18:32;3.22;;;1.00;;
55784;SDS011;41709;52.536;5.688;2023-04-03T01:21:10;1.87;;;1.10;;
55784;SDS011;41709;52.536;5.688;2023-04-03T01:23:49;3.15;;;0.98;;
55784;SDS011;41709;52.536;5.688;2023-04-03T01:26:21;3.28;;;1.63;;
55784;SDS011;41709;52.536;5.688;2023-04-03T01:28:46;3.03;;;0.85;;
55784;SDS011;41709;52.536;5.688;2023-04-03T01:34:04;2.38;;;0.90;;
55784;SDS011;41709;52.536;5.688;2023-04-03T01:36:30;3.13;;;1.10;;
55784;SDS011;41709;52.536;5.688;2023-04-03T01:38:56;3.05;;;1.27;;
55784;SDS011;41709;52.536;5.688;2023-04-03T01:41:24;3.17;;;1.10;;
55784;SDS011;41709;52.536;5.688;2023-04-03T01:43:50;4.25;;;1.00;;
55784;SDS011;41709;52.536;5.688;2023-04-03T01:46:16;3.03;;;1.10;;
55784;SDS011;41709;52.536;5.688;2023-04-03T01:48:42;4.28;;;1.35;;
55784;SDS011;41709;52.536;5.688;2023-04-03T01:51:08;2.08;;;1.13;;
55784;SDS011;41709;52.536;5.688;2023-04-03T01:53:34;2.35;;;0.82;;
55784;SDS011;41709;52.536;5.688;2023-04-03T01:55:59;3.67;;;0.90;;
55784;SDS011;41709;52.536;5.688;2023-04-03T01:58:25;3.40;;;1.10;;
55784;SDS011;41709;52.536;5.688;2023-04-03T02:00:51;4.68;;;1.08;;
55784;SDS011;41709;52.536;5.688;2023-04-03T02:03:17;4.35;;;1.10;;
55784;SDS011;41709;52.536;5.688;2023-04-03T02:05:43;3.63;;;0.90;;
55784;SDS011;41709;52.536;5.688;2023-04-03T02:08:09;3.17;;;1.13;;
55784;SDS011;41709;52.536;5.688;2023-04-03T02:10:34;4.72;;;1.45;;
55784;SDS011;41709;52.536;5.688;2023-04-03T02:13:00;2.72;;;1.05;;
55784;SDS011;41709;52.536;5.688;2023-04-03T02:15:26;5.03;;;1.17;;
55784;SDS011;41709;52.536;5.688;2023-04-03T02:17:51;3.50;;;1.00;;
55784;SDS011;41709;52.536;5.688;2023-04-03T02:20:17;1.80;;;1.00;;
55784;SDS011;41709;52.536;5.688;2023-04-03T02:22:43;5.93;;;1.17;;
55784;SDS011;41709;52.536;5.688;2023-04-03T02:25:08;2.38;;;0.93;;
55784;SDS011;41709;52.536;5.688;2023-04-03T02:27:35;4.03;;;1.35;;
55784;SDS011;41709;52.536;5.688;2023-04-03T02:30:01;3.97;;;1.23;;
55784;SDS011;41709;52.536;5.688;2023-04-03T02:32:27;3.15;;;1.30;;
55784;SDS011;41709;52.536;5.688;2023-04-03T02:34:52;2.03;;;1.00;;
55784;SDS011;41709;52.536;5.688;2023-04-03T02:37:18;6.32;;;1.45;;
55784;SDS011;41709;52.536;5.688;2023-04-03T02:39:44;5.68;;;1.10;;
55784;SDS011;41709;52.536;5.688;2023-04-03T02:42:09;2.45;;;1.20;;
55784;SDS011;41709;52.536;5.688;2023-04-03T02:44:35;3.78;;;1.30;;
55784;SDS011;41709;52.536;5.688;2023-04-03T02:47:00;3.28;;;1.27;;
55784;SDS011;41709;52.536;5.688;2023-04-03T02:49:27;4.45;;;1.60;;
55784;SDS011;41709;52.536;5.688;2023-04-03T02:51:53;4.47;;;1.75;;
55784;SDS011;41709;52.536;5.688;2023-04-03T02:54:18;3.00;;;1.10;;
55784;SDS011;41709;52.536;5.688;2023-04-03T02:56:44;3.83;;;1.02;;
55784;SDS011;41709;52.536;5.688;2023-04-03T02:59:09;4.88;;;1.40;;
55784;SDS011;41709;52.536;5.688;2023-04-03T03:01:35;2.50;;;1.30;;
55784;SDS011;41709;52.536;5.688;2023-04-03T03:04:00;3.65;;;1.60;;
55784;SDS011;41709;52.536;5.688;2023-04-03T03:06:26;3.60;;;1.50;;
55784;SDS011;41709;52.536;5.688;2023-04-03T03:08:52;2.95;;;1.17;;
55784;SDS011;41709;52.536;5.688;2023-04-03T03:11:18;3.40;;;1.67;;
55784;SDS011;41709;52.536;5.688;2023-04-03T03:13:43;3.83;;;1.50;;
55784;SDS011;41709;52.536;5.688;2023-04-03T03:16:09;2.35;;;1.33;;
55784;SDS011;41709;52.536;5.688;2023-04-03T03:18:35;3.78;;;1.45;;
55784;SDS011;41709;52.536;5.688;2023-04-03T03:21:01;7.13;;;1.58;;
55784;SDS011;41709;52.536;5.688;2023-04-03T03:23:28;4.97;;;1.33;;
55784;SDS011;41709;52.536;5.688;2023-04-03T03:25:56;2.90;;;1.73;;
55784;SDS011;41709;52.536;5.688;2023-04-03T03:28:26;3.55;;;1.52;;
55784;SDS011;41709;52.536;5.688;2023-04-03T03:30:52;7.40;;;2.30;;
55784;SDS011;41709;52.536;5.688;2023-04-03T03:33:18;6.13;;;1.50;;
55784;SDS011;41709;52.536;5.688;2023-04-03T03:35:44;4.72;;;1.30;;
55784;SDS011;41709;52.536;5.688;2023-04-03T03:38:10;6.22;;;1.60;;
55784;SDS011;41709;52.536;5.688;2023-04-03T03:40:35;4.10;;;1.35;;
55784;SDS011;41709;52.536;5.688;2023-04-03T03:43:01;4.13;;;1.52;;
55784;SDS011;41709;52.536;5.688;2023-04-03T03:45:27;2.08;;;1.40;;
55784;SDS011;41709;52.536;5.688;2023-04-03T03:47:52;4.75;;;1.40;;
55784;SDS011;41709;52.536;5.688;2023-04-03T03:50:18;4.50;;;1.42;;
55784;SDS011;41709;52.536;5.688;2023-04-03T03:52:43;3.45;;;1.60;;
55784;SDS011;41709;52.536;5.688;2023-04-03T03:55:09;4.50;;;1.35;;
55784;SDS011;41709;52.536;5.688;2023-04-03T03:57:35;5.03;;;1.40;;
55784;SDS011;41709;52.536;5.688;2023-04-03T04:00:01;2.92;;;1.27;;
55784;SDS011;41709;52.536;5.688;2023-04-03T04:02:28;3.05;;;1.80;;
55784;SDS011;41709;52.536;5.688;2023-04-03T04:04:54;2.90;;;1.40;;
55784;SDS011;41709;52.536;5.688;2023-04-03T04:07:19;4.68;;;1.67;;
55784;SDS011;41709;52.536;5.688;2023-04-03T04:09:45;2.45;;;1.67;;
55784;SDS011;41709;52.536;5.688;2023-04-03T04:12:10;5.78;;;1.95;;
55784;SDS011;41709;52.536;5.688;2023-04-03T04:14:36;6.05;;;1.50;;
55784;SDS011;41709;52.536;5.688;2023-04-03T04:17:01;5.20;;;1.77;;
55784;SDS011;41709;52.536;5.688;2023-04-03T04:19:27;5.45;;;1.67;;
55784;SDS011;41709;52.536;5.688;2023-04-03T04:21:53;6.32;;;1.98;;
55784;SDS011;41709;52.536;5.688;2023-04-03T04:24:19;5.93;;;1.35;;
55784;SDS011;41709;52.536;5.688;2023-04-03T04:26:45;2.72;;;1.38;;
55784;SDS011;41709;52.536;5.688;2023-04-03T04:29:10;7.43;;;1.50;;
55784;SDS011;41709;52.536;5.688;2023-04-03T04:31:36;5.18;;;1.63;;
55784;SDS011;41709;52.536;5.688;2023-04-03T04:34:01;4.10;;;1.88;;
55784;SDS011;41709;52.536;5.688;2023-04-03T04:36:27;6.60;;;2.20;;
55784;SDS011;41709;52.536;5.688;2023-04-03T04:38:53;3.67;;;1.40;;
55784;SDS011;41709;52.536;5.688;2023-04-03T04:41:21;7.05;;;1.88;;
55784;SDS011;41709;52.536;5.688;2023-04-03T04:43:48;4.20;;;1.83;;
55784;SDS011;41709;52.536;5.688;2023-04-03T04:46:14;6.88;;;2.03;;
55784;SDS011;41709;52.536;5.688;2023-04-03T04:48:40;3.17;;;1.75;;
55784;SDS011;41709;52.536;5.688;2023-04-03T04:51:06;5.65;;;1.95;;
55784;SDS011;41709;52.536;5.688;2023-04-03T04:53:32;4.95;;;1.83;;
55784;SDS011;41709;52.536;5.688;2023-04-03T04:55:57;4.55;;;1.63;;
55784;SDS011;41709;52.536;5.688;2023-04-03T04:58:23;3.20;;;1.52;;
55784;SDS011;41709;52.536;5.688;2023-04-03T05:00:49;4.68;;;1.50;;
55784;SDS011;41709;52.536;5.688;2023-04-03T05:03:14;4.63;;;1.90;;
55784;SDS011;41709;52.536;5.688;2023-04-03T05:05:40;5.28;;;1.42;;
55784;SDS011;41709;52.536;5.688;2023-04-03T05:08:06;3.55;;;2.00;;
55784;SDS011;41709;52.536;5.688;2023-04-03T05:10:33;3.53;;;1.50;;
55784;SDS011;41709;52.536;5.688;2023-04-03T05:12:59;3.35;;;1.40;;
55784;SDS011;41709;52.536;5.688;2023-04-03T05:15:24;6.18;;;1.70;;
55784;SDS011;41709;52.536;5.688;2023-04-03T05:17:50;4.78;;;1.80;;
55784;SDS011;41709;52.536;5.688;2023-04-03T05:20:16;9.80;;;2.00;;
55784;SDS011;41709;52.536;5.688;2023-04-03T05:22:42;2.92;;;1.52;;
55784;SDS011;41709;52.536;5.688;2023-04-03T05:25:07;4.57;;;2.10;;
55784;SDS011;41709;52.536;5.688;2023-04-03T05:27:33;7.28;;;1.80;;
55784;SDS011;41709;52.536;5.688;2023-04-03T05:29:59;6.18;;;1.63;;
55784;SDS011;41709;52.536;5.688;2023-04-03T05:32:25;4.30;;;1.80;;
55784;SDS011;41709;52.536;5.688;2023-04-03T05:34:52;3.10;;;1.50;;
55784;SDS011;41709;52.536;5.688;2023-04-03T05:37:18;7.28;;;1.90;;
55784;SDS011;41709;52.536;5.688;2023-04-03T05:39:44;4.43;;;1.73;;
55784;SDS011;41709;52.536;5.688;2023-04-03T05:42:10;4.55;;;2.10;;
55784;SDS011;41709;52.536;5.688;2023-04-03T05:44:36;4.10;;;1.88;;
55784;SDS011;41709;52.536;5.688;2023-04-03T05:47:02;4.38;;;1.65;;
55784;SDS011;41709;52.536;5.688;2023-04-03T05:49:28;4.53;;;1.60;;
55784;SDS011;41709;52.536;5.688;2023-04-03T05:51:54;3.58;;;1.65;;
55784;SDS011;41709;52.536;5.688;2023-04-03T05:54:24;4.88;;;1.50;;
55784;SDS011;41709;52.536;5.688;2023-04-03T05:56:51;5.57;;;1.70;;
55784;SDS011;41709;52.536;5.688;2023-04-03T05:59:17;5.15;;;1.75;;
55784;SDS011;41709;52.536;5.688;2023-04-03T06:01:44;7.25;;;2.20;;
55784;SDS011;41709;52.536;5.688;2023-04-03T06:04:09;7.07;;;2.40;;
55784;SDS011;41709;52.536;5.688;2023-04-03T06:07:09;5.75;;;1.65;;
55784;SDS011;41709;52.536;5.688;2023-04-03T06:09:28;4.75;;;1.90;;
55784;SDS011;41709;52.536;5.688;2023-04-03T06:11:54;4.05;;;1.95;;
55784;SDS011;41709;52.536;5.688;2023-04-03T06:14:20;8.82;;;2.33;;
55784;SDS011;41709;52.536;5.688;2023-04-03T06:16:46;3.67;;;1.73;;
55784;SDS011;41709;52.536;5.688;2023-04-03T06:19:12;4.68;;;1.85;;
55784;SDS011;41709;52.536;5.688;2023-04-03T06:21:37;7.40;;;2.38;;
55784;SDS011;41709;52.536;5.688;2023-04-03T06:24:04;6.72;;;1.85;;
55784;SDS011;41709;52.536;5.688;2023-04-03T06:26:31;7.78;;;2.85;;
55784;SDS011;41709;52.536;5.688;2023-04-03T06:28:57;4.72;;;1.90;;
55784;SDS011;41709;52.536;5.688;2023-04-03T06:31:22;6.47;;;2.22;;
55784;SDS011;41709;52.536;5.688;2023-04-03T06:33:48;7.38;;;2.25;;
55784;SDS011;41709;52.536;5.688;2023-04-03T06:36:14;7.40;;;2.28;;
55784;SDS011;41709;52.536;5.688;2023-04-03T06:38:44;8.07;;;1.65;;
55784;SDS011;41709;52.536;5.688;2023-04-03T06:41:10;5.10;;;1.70;;
55784;SDS011;41709;52.536;5.688;2023-04-03T06:43:35;4.97;;;2.17;;
55784;SDS011;41709;52.536;5.688;2023-04-03T06:46:01;11.85;;;2.35;;
55784;SDS011;41709;52.536;5.688;2023-04-03T06:48:27;6.55;;;1.92;;
55784;SDS011;41709;52.536;5.688;2023-04-03T06:50:53;7.03;;;1.85;;
55784;SDS011;41709;52.536;5.688;2023-04-03T06:53:18;4.47;;;1.77;;
55784;SDS011;41709;52.536;5.688;2023-04-03T06:55:44;8.38;;;1.90;;
55784;SDS011;41709;52.536;5.688;2023-04-03T06:58:10;6.82;;;1.73;;
55784;SDS011;41709;52.536;5.688;2023-04-03T07:00:35;5.80;;;1.70;;
55784;SDS011;41709;52.536;5.688;2023-04-03T07:03:01;10.40;;;1.58;;
55784;SDS011;41709;52.536;5.688;2023-04-03T07:05:27;7.82;;;1.40;;
55784;SDS011;41709;52.536;5.688;2023-04-03T07:07:53;10.25;;;1.55;;
55784;SDS011;41709;52.536;5.688;2023-04-03T07:10:18;3.40;;;1.40;;
55784;SDS011;41709;52.536;5.688;2023-04-03T07:12:44;3.08;;;1.45;;
55784;SDS011;41709;52.536;5.688;2023-04-03T07:15:10;7.53;;;1.83;;
55784;SDS011;41709;52.536;5.688;2023-04-03T07:17:37;2.60;;;1.00;;
55784;SDS011;41709;52.536;5.688;2023-04-03T07:20:03;3.53;;;1.67;;
55784;SDS011;41709;52.536;5.688;2023-04-03T07:22:29;3.20;;;1.52;;
55784;SDS011;41709;52.536;5.688;2023-04-03T07:24:55;4.63;;;1.63;;
55784;SDS011;41709;52.536;5.688;2023-04-03T07:27:21;4.82;;;1.92;;
55784;SDS011;41709;52.536;5.688;2023-04-03T07:29:46;3.95;;;1.23;;
55784;SDS011;41709;52.536;5.688;2023-04-03T07:32:13;4.75;;;1.42;;
55784;SDS011;41709;52.536;5.688;2023-04-03T07:34:40;5.97;;;1.42;;
55784;SDS011;41709;52.536;5.688;2023-04-03T07:37:06;5.85;;;1.85;;
55784;SDS011;41709;52.536;5.688;2023-04-03T07:39:32;4.22;;;2.08;;
55784;SDS011;41709;52.536;5.688;2023-04-03T07:41:57;4.93;;;1.33;;
55784;SDS011;41709;52.536;5.688;2023-04-03T07:44:23;8.05;;;1.50;;
55784;SDS011;41709;52.536;5.688;2023-04-03T07:46:49;5.60;;;1.73;;
55784;SDS011;41709;52.536;5.688;2023-04-03T07:49:15;6.32;;;1.67;;
55784;SDS011;41709;52.536;5.688;2023-04-03T07:51:43;5.72;;;1.42;;
55784;SDS011;41709;52.536;5.688;2023-04-03T07:54:09;4.60;;;1.30;;
55784;SDS011;41709;52.536;5.688;2023-04-03T07:56:34;4.57;;;1.40;;
55784;SDS011;41709;52.536;5.688;2023-04-03T07:59:00;3.90;;;1.33;;
55784;SDS011;41709;52.536;5.688;2023-04-03T08:01:26;7.55;;;2.33;;
55784;SDS011;41709;52.536;5.688;2023-04-03T08:03:51;3.22;;;1.63;;
55784;SDS011;41709;52.536;5.688;2023-04-03T08:06:18;4.28;;;1.30;;
55784;SDS011;41709;52.536;5.688;2023-04-03T08:08:44;3.83;;;1.00;;
55784;SDS011;41709;52.536;5.688;2023-04-03T08:11:10;4.45;;;1.38;;
55784;SDS011;41709;52.536;5.688;2023-04-03T08:13:37;2.63;;;1.27;;
55784;SDS011;41709;52.536;5.688;2023-04-03T08:16:10;2.90;;;1.10;;
55784;SDS011;41709;52.536;5.688;2023-04-03T08:18:46;4.75;;;1.20;;
55784;SDS011;41709;52.536;5.688;2023-04-03T08:21:12;4.65;;;1.23;;
55784;SDS011;41709;52.536;5.688;2023-04-03T08:23:39;3.80;;;1.00;;
55784;SDS011;41709;52.536;5.688;2023-04-03T08:26:10;3.42;;;1.35;;
55784;SDS011;41709;52.536;5.688;2023-04-03T08:28:38;2.60;;;1.15;;
55784;SDS011;41709;52.536;5.688;2023-04-03T08:31:07;3.75;;;0.95;;
55784;SDS011;41709;52.536;5.688;2023-04-03T08:33:36;3.30;;;1.17;;
55784;SDS011;41709;52.536;5.688;2023-04-03T08:36:06;6.05;;;1.52;;
55784;SDS011;41709;52.536;5.688;2023-04-03T08:38:40;4.65;;;1.10;;
55784;SDS011;41709;52.536;5.688;2023-04-03T08:44:03;6.85;;;2.13;;
55784;SDS011;41709;52.536;5.688;2023-04-03T08:49:33;5.78;;;1.23;;
55784;SDS011;41709;52.536;5.688;2023-04-03T08:52:15;4.38;;;1.38;;
55784;SDS011;41709;52.536;5.688;2023-04-03T08:54:48;3.10;;;0.95;;
55784;SDS011;41709;52.536;5.688;2023-04-03T08:57:41;5.25;;;0.90;;
55784;SDS011;41709;52.536;5.688;2023-04-03T09:02:43;4.07;;;1.05;;
55784;SDS011;41709;52.536;5.688;2023-04-03T09:05:11;3.03;;;0.75;;
55784;SDS011;41709;52.536;5.688;2023-04-03T09:07:42;2.30;;;0.73;;
55784;SDS011;41709;52.536;5.688;2023-04-03T09:10:28;5.18;;;0.93;;
55784;SDS011;41709;52.536;5.688;2023-04-03T09:13:03;2.72;;;1.10;;
55784;SDS011;41709;52.536;5.688;2023-04-03T09:15:49;3.22;;;0.73;;
55784;SDS011;41709;52.536;5.688;2023-04-03T09:18:23;3.20;;;1.05;;
55784;SDS011;41709;52.536;5.688;2023-04-03T09:26:04;5.40;;;1.13;;
55784;SDS011;41709;52.536;5.688;2023-04-03T09:28:35;1.98;;;1.15;;
55784;SDS011;41709;52.536;5.688;2023-04-03T09:31:10;3.63;;;1.00;;
55784;SDS011;41709;52.536;5.688;2023-04-03T09:33:43;1.48;;;0.98;;
55784;SDS011;41709;52.536;5.688;2023-04-03T09:36:10;3.05;;;0.85;;
55784;SDS011;41709;52.536;5.688;2023-04-03T09:38:36;0.90;;;0.50;;
55784;SDS011;41709;52.536;5.688;2023-04-03T09:43:32;2.25;;;0.75;;
55784;SDS011;41709;52.536;5.688;2023-04-03T09:46:15;2.20;;;0.80;;
55784;SDS011;41709;52.536;5.688;2023-04-03T09:48:59;1.30;;;0.60;;
55784;SDS011;41709;52.536;5.688;2023-04-03T09:51:27;2.58;;;0.70;;
55784;SDS011;41709;52.536;5.688;2023-04-03T09:53:53;2.90;;;0.75;;
55784;SDS011;41709;52.536;5.688;2023-04-03T09:56:23;1.23;;;0.60;;
55784;SDS011;41709;52.536;5.688;2023-04-03T10:01:35;2.05;;;0.40;;
55784;SDS011;41709;52.536;5.688;2023-04-03T10:04:13;3.65;;;1.02;;
55784;SDS011;41709;52.536;5.688;2023-04-03T10:09:18;2.38;;;1.00;;
55784;SDS011;41709;52.536;5.688;2023-04-03T10:14:32;0.95;;;0.50;;
55784;SDS011;41709;52.536;5.688;2023-04-03T10:17:09;1.77;;;0.68;;
55784;SDS011;41709;52.536;5.688;2023-04-03T10:19:46;1.77;;;0.60;;
55784;SDS011;41709;52.536;5.688;2023-04-03T10:25:12;3.55;;;1.00;;
55784;SDS011;41709;52.536;5.688;2023-04-03T10:36:34;0.85;;;0.45;;
55784;SDS011;41709;52.536;5.688;2023-04-03T10:39:37;0.70;;;0.28;;
55784;SDS011;41709;52.536;5.688;2023-04-03T10:42:15;1.08;;;0.50;;
55784;SDS011;41709;52.536;5.688;2023-04-03T10:50:27;1.75;;;0.50;;
55784;SDS011;41709;52.536;5.688;2023-04-03T10:55:41;1.03;;;0.40;;
55784;SDS011;41709;52.536;5.688;2023-04-03T10:58:19;1.63;;;0.50;;
55784;SDS011;41709;52.536;5.688;2023-04-03T11:00:51;1.55;;;0.55;;
55784;SDS011;41709;52.536;5.688;2023-04-03T11:03:26;1.40;;;0.40;;
55784;SDS011;41709;52.536;5.688;2023-04-03T11:06:07;1.35;;;0.40;;
55784;SDS011;41709;52.536;5.688;2023-04-03T11:08:43;1.40;;;0.45;;
55784;SDS011;41709;52.536;5.688;2023-04-03T11:11:12;2.35;;;0.45;;
55784;SDS011;41709;52.536;5.688;2023-04-03T11:13:46;1.70;;;0.55;;
55784;SDS011;41709;52.536;5.688;2023-04-03T11:16:36;1.27;;;0.50;;
55784;SDS011;41709;52.536;5.688;2023-04-03T11:22:10;1.30;;;0.45;;
55784;SDS011;41709;52.536;5.688;2023-04-03T11:24:37;1.35;;;0.47;;
55784;SDS011;41709;52.536;5.688;2023-04-03T11:27:08;2.05;;;0.45;;
55784;SDS011;41709;52.536;5.688;2023-04-03T11:29:47;1.27;;;0.55;;
55784;SDS011;41709;52.536;5.688;2023-04-03T11:35:04;1.65;;;0.60;;
55784;SDS011;41709;52.536;5.688;2023-04-03T11:37:38;0.63;;;0.30;;
55784;SDS011;41709;52.536;5.688;2023-04-03T11:42:43;2.63;;;0.68;;
55784;SDS011;41709;52.536;5.688;2023-04-03T11:47:50;2.10;;;0.50;;
55784;SDS011;41709;52.536;5.688;2023-04-03T11:50:31;1.73;;;0.57;;
55784;SDS011;41709;52.536;5.688;2023-04-03T12:05:54;0.95;;;0.47;;
55784;SDS011;41709;52.536;5.688;2023-04-03T12:08:26;2.83;;;0.40;;
55784;SDS011;41709;52.536;5.688;2023-04-03T12:19:00;2.30;;;0.57;;
55784;SDS011;41709;52.536;5.688;2023-04-03T12:24:29;1.05;;;0.50;;
55784;SDS011;41709;52.536;5.688;2023-04-03T12:37:02;2.47;;;0.80;;
55784;SDS011;41709;52.536;5.688;2023-04-03T12:39:51;3.20;;;0.52;;
55784;SDS011;41709;52.536;5.688;2023-04-03T12:45:25;2.67;;;0.70;;
55784;SDS011;41709;52.536;5.688;2023-04-03T12:47:52;2.55;;;0.98;;
55784;SDS011;41709;52.536;5.688;2023-04-03T12:52:47;3.58;;;0.60;;
55784;SDS011;41709;52.536;5.688;2023-04-03T12:55:29;1.63;;;0.60;;
55784;SDS011;41709;52.536;5.688;2023-04-03T12:57:55;3.30;;;0.95;;
55784;SDS011;41709;52.536;5.688;2023-04-03T13:02:55;2.00;;;0.73;;
55784;SDS011;41709;52.536;5.688;2023-04-03T13:05:21;1.80;;;0.75;;
55784;SDS011;41709;52.536;5.688;2023-04-03T13:08:08;5.85;;;1.13;;
55784;SDS011;41709;52.536;5.688;2023-04-03T13:10:50;2.08;;;0.50;;
55784;SDS011;41709;52.536;5.688;2023-04-03T13:13:19;2.65;;;0.80;;
55784;SDS011;41709;52.536;5.688;2023-04-03T13:15:47;2.35;;;0.65;;
55784;SDS011;41709;52.536;5.688;2023-04-03T13:18:48;2.15;;;0.60;;
55784;SDS011;41709;52.536;5.688;2023-04-03T13:21:13;1.73;;;0.60;;
55784;SDS011;41709;52.536;5.688;2023-04-03T13:23:43;2.75;;;0.75;;
55784;SDS011;41709;52.536;5.688;2023-04-03T13:26:11;0.98;;;0.45;;
55784;SDS011;41709;52.536;5.688;2023-04-03T13:28:41;4.22;;;0.60;;
55784;SDS011;41709;52.536;5.688;2023-04-03T13:31:17;1.85;;;0.50;;
55784;SDS011;41709;52.536;5.688;2023-04-03T13:33:54;4.75;;;1.77;;
55784;SDS011;41709;52.536;5.688;2023-04-03T13:36:31;2.67;;;0.70;;
55784;SDS011;41709;52.536;5.688;2023-04-03T13:41:42;1.77;;;0.60;;
55784;SDS011;41709;52.536;5.688;2023-04-03T13:46:54;2.75;;;0.70;;
55784;SDS011;41709;52.536;5.688;2023-04-03T13:51:53;1.02;;;0.50;;
55784;SDS011;41709;52.536;5.688;2023-04-03T13:54:20;3.03;;;0.73;;
55784;SDS011;41709;52.536;5.688;2023-04-03T13:56:54;3.65;;;0.68;;
55784;SDS011;41709;52.536;5.688;2023-04-03T13:59:27;4.47;;;1.25;;
55784;SDS011;41709;52.536;5.688;2023-04-03T14:06:56;2.60;;;0.60;;
55784;SDS011;41709;52.536;5.688;2023-04-03T14:09:24;2.40;;;0.60;;
55784;SDS011;41709;52.536;5.688;2023-04-03T14:11:55;3.10;;;0.75;;
55784;SDS011;41709;52.536;5.688;2023-04-03T14:14:30;0.70;;;0.60;;
55784;SDS011;41709;52.536;5.688;2023-04-03T14:16:58;2.10;;;1.00;;
55784;SDS011;41709;52.536;5.688;2023-04-03T14:19:27;3.45;;;1.33;;
55784;SDS011;41709;52.536;5.688;2023-04-03T14:24:22;1.40;;;0.70;;
55784;SDS011;41709;52.536;5.688;2023-04-03T14:26:48;1.52;;;0.60;;
55784;SDS011;41709;52.536;5.688;2023-04-03T14:29:15;3.75;;;0.73;;
55784;SDS011;41709;52.536;5.688;2023-04-03T14:31:42;1.67;;;0.55;;
55784;SDS011;41709;52.536;5.688;2023-04-03T14:34:13;1.35;;;0.70;;
55784;SDS011;41709;52.536;5.688;2023-04-03T14:36:40;1.88;;;0.60;;
55784;SDS011;41709;52.536;5.688;2023-04-03T14:39:08;1.38;;;0.50;;
55784;SDS011;41709;52.536;5.688;2023-04-03T14:41:40;3.00;;;0.70;;
55784;SDS011;41709;52.536;5.688;2023-04-03T14:44:07;4.38;;;0.88;;
55784;SDS011;41709;52.536;5.688;2023-04-03T14:46:34;5.00;;;0.80;;
55784;SDS011;41709;52.536;5.688;2023-04-03T14:49:02;2.88;;;0.77;;
55784;SDS011;41709;52.536;5.688;2023-04-03T14:51:32;1.88;;;0.90;;
55784;SDS011;41709;52.536;5.688;2023-04-03T14:53:58;2.50;;;0.73;;
55784;SDS011;41709;52.536;5.688;2023-04-03T14:56:27;2.33;;;0.63;;
55784;SDS011;41709;52.536;5.688;2023-04-03T14:58:58;1.92;;;0.68;;
55784;SDS011;41709;52.536;5.688;2023-04-03T15:01:26;1.98;;;0.85;;
55784;SDS011;41709;52.536;5.688;2023-04-03T15:03:53;1.88;;;0.60;;
55784;SDS011;41709;52.536;5.688;2023-04-03T15:06:19;3.20;;;0.88;;
55784;SDS011;41709;52.536;5.688;2023-04-03T15:08:46;2.10;;;0.70;;
55784;SDS011;41709;52.536;5.688;2023-04-03T15:11:13;2.35;;;0.70;;
55784;SDS011;41709;52.536;5.688;2023-04-03T15:13:38;3.22;;;1.13;;
55784;SDS011;41709;52.536;5.688;2023-04-03T15:16:05;2.97;;;0.85;;
55784;SDS011;41709;52.536;5.688;2023-04-03T15:18:38;2.78;;;0.75;;
55784;SDS011;41709;52.536;5.688;2023-04-03T15:21:04;1.95;;;0.95;;
55784;SDS011;41709;52.536;5.688;2023-04-03T15:23:30;2.70;;;0.90;;
55784;SDS011;41709;52.536;5.688;2023-04-03T15:25:56;3.17;;;0.70;;
55784;SDS011;41709;52.536;5.688;2023-04-03T15:28:27;2.75;;;0.57;;
55784;SDS011;41709;52.536;5.688;2023-04-03T15:31:04;3.50;;;1.10;;
55784;SDS011;41709;52.536;5.688;2023-04-03T15:33:31;1.45;;;0.70;;
55784;SDS011;41709;52.536;5.688;2023-04-03T15:35:57;4.10;;;0.88;;
55784;SDS011;41709;52.536;5.688;2023-04-03T15:38:22;1.90;;;0.85;;
55784;SDS011;41709;52.536;5.688;2023-04-03T15:40:48;2.97;;;0.88;;
55784;SDS011;41709;52.536;5.688;2023-04-03T15:43:14;2.53;;;0.70;;
55784;SDS011;41709;52.536;5.688;2023-04-03T15:45:40;5.05;;;1.30;;
55784;SDS011;41709;52.536;5.688;2023-04-03T15:48:07;1.95;;;0.90;;
55784;SDS011;41709;52.536;5.688;2023-04-03T15:50:33;3.70;;;1.02;;
55784;SDS011;41709;52.536;5.688;2023-04-03T15:53:00;2.17;;;0.70;;
55784;SDS011;41709;52.536;5.688;2023-04-03T15:55:27;3.25;;;1.20;;
55784;SDS011;41709;52.536;5.688;2023-04-03T15:57:54;1.67;;;0.90;;
55784;SDS011;41709;52.536;5.688;2023-04-03T16:00:21;2.60;;;0.90;;
55784;SDS011;41709;52.536;5.688;2023-04-03T16:02:47;3.00;;;1.13;;
55784;SDS011;41709;52.536;5.688;2023-04-03T16:05:15;3.20;;;0.95;;
55784;SDS011;41709;52.536;5.688;2023-04-03T16:07:42;2.15;;;0.90;;
55784;SDS011;41709;52.536;5.688;2023-04-03T16:10:11;3.35;;;0.93;;
55784;SDS011;41709;52.536;5.688;2023-04-03T16:12:39;3.85;;;2.42;;
55784;SDS011;41709;52.536;5.688;2023-04-03T16:15:05;4.50;;;3.13;;
55784;SDS011;41709;52.536;5.688;2023-04-03T16:17:31;4.38;;;2.65;;
55784;SDS011;41709;52.536;5.688;2023-04-03T16:19:58;7.10;;;2.88;;
55784;SDS011;41709;52.536;5.688;2023-04-03T16:22:25;5.80;;;3.30;;
55784;SDS011;41709;52.536;5.688;2023-04-03T16:24:52;4.78;;;0.93;;
55784;SDS011;41709;52.536;5.688;2023-04-03T16:27:18;2.20;;;0.80;;
55784;SDS011;41709;52.536;5.688;2023-04-03T16:29:43;6.25;;;1.17;;
55784;SDS011;41709;52.536;5.688;2023-04-03T16:32:09;3.35;;;0.82;;
55784;SDS011;41709;52.536;5.688;2023-04-03T16:34:35;2.25;;;0.90;;
55784;SDS011;41709;52.536;5.688;2023-04-03T16:37:01;3.80;;;1.25;;
55784;SDS011;41709;52.536;5.688;2023-04-03T16:39:26;3.33;;;1.15;;
55784;SDS011;41709;52.536;5.688;2023-04-03T16:41:52;2.10;;;0.77;;
55784;SDS011;41709;52.536;5.688;2023-04-03T16:44:17;1.90;;;1.02;;
55784;SDS011;41709;52.536;5.688;2023-04-03T16:46:43;3.08;;;1.08;;
55784;SDS011;41709;52.536;5.688;2023-04-03T16:49:09;4.28;;;1.30;;
55784;SDS011;41709;52.536;5.688;2023-04-03T16:51:34;3.55;;;1.05;;
55784;SDS011;41709;52.536;5.688;2023-04-03T16:54:00;2.13;;;0.93;;